Terminal Aerodrome Forecast
Issued by NWS Blacksburg, VA

Home | Current Version | Previous Version | Text Only | Print | Product List | Glossary On
Versions: 1 2 3 4 5 6 7 8 9 10 11 12 13 14 15 16
000
FTUS41 KRNK 051200 RRA
TAFROA
TAF
KROA 051200Z 0512/0612 36005KT P6SM SCT005 OVC035
      TEMPO 0512/0514 BKN005
     FM051400 32007KT P6SM BKN030 OVC250
     FM051600 31009G18KT P6SM SCT030 BKN250
     FM052200 VRB03KT P6SM BKN150 OVC250
     FM060600 10004KT 6SM -RA SCT015 OVC050
     FM060900 10006KT 2SM RA OVC009=

USA.gov is the U.S. government's official web portal to all federal, state and local government web resources and services.